createdAt,value
2023-02-24T00:02:06.932Z,78885.59
2023-02-24T00:04:42.355Z,78826.91
2023-02-24T00:07:14.106Z,78888.94
2023-02-24T00:09:45.507Z,78857.28
2023-02-24T00:12:17.011Z,78890.97
2023-02-24T00:14:47.006Z,78867.16
2023-02-24T00:17:16.019Z,78895.56
2023-02-24T00:19:45.756Z,78883.03
2023-02-24T00:22:15.059Z,78867.22
2023-02-24T00:24:44.307Z,78879.75
2023-02-24T00:27:13.249Z,78896.94
2023-02-24T00:29:47.181Z,78889.03
2023-02-24T00:32:16.329Z,78877.13
2023-02-24T00:34:47.553Z,78850.06
2023-02-24T00:37:16.924Z,78897.59
2023-02-24T00:39:46.583Z,78879.75
2023-02-24T00:42:15.793Z,78903.53
2023-02-24T00:44:48.986Z,78892.97
2023-02-24T00:47:18.680Z,78870.53
2023-02-24T00:49:49.221Z,78912.78
2023-02-24T00:52:22.338Z,78896.28
2023-02-24T00:54:52.012Z,78916.06
2023-02-24T00:57:22.222Z,78902.19
2023-02-24T00:59:53.222Z,78908.13
2023-02-24T01:02:22.337Z,78914.09
2023-02-24T01:04:52.563Z,78922.72
2023-02-24T01:07:21.920Z,78914.09
2023-02-24T01:09:52.622Z,78927.31
2023-02-24T01:12:50.966Z,78892.31
2023-02-24T01:15:22.586Z,78918.75
2023-02-24T01:17:51.894Z,78906.84
2023-02-24T01:20:20.850Z,78927.97
2023-02-24T01:22:57.926Z,78916.03
2023-02-24T01:25:27.826Z,78929.94
2023-02-24T01:27:56.898Z,78928.63
2023-02-24T01:30:25.961Z,78920.72
2023-02-24T01:32:55.500Z,78918.72
2023-02-24T01:35:24.483Z,78930.63
2023-02-24T01:37:54.645Z,78940.53
2023-02-24T01:40:27.467Z,78916.03
2023-02-24T01:42:56.677Z,78886.31
2023-02-24T01:45:30.040Z,78948.47
2023-02-24T01:48:04.477Z,78939.19
2023-02-24T01:50:36.868Z,78927.97
2023-02-24T01:53:09.348Z,78955.03
2023-02-24T01:55:48.064Z,78939.22
2023-02-24T02:39:47.575Z,78984.25
2023-02-24T02:42:31.636Z,78983.56
2023-02-24T02:45:38.492Z,78983.50
2023-02-24T02:48:29.591Z,78997.06
2023-02-24T02:51:26.176Z,78996.75
2023-02-24T02:54:34.168Z,78991.56
2023-02-24T02:57:35.057Z,78991.56
2023-02-24T03:00:14.443Z,78976.44
2023-02-24T03:02:48.619Z,78979.16
2023-02-24T03:05:22.390Z,79001.97
2023-02-24T03:07:55.815Z,79008.75
2023-02-24T03:10:29.115Z,78996.38
2023-02-24T03:13:05.701Z,79006.81
2023-02-24T03:15:35.538Z,78995.22
2023-02-24T03:18:13.285Z,79003.22
2023-02-24T03:20:52.800Z,79022.25
2023-02-24T03:23:32.247Z,79028.56
2023-02-24T03:26:22.985Z,79030.53
2023-02-24T03:29:25.219Z,79020.56
2023-02-24T03:32:04.279Z,79028.38
2023-02-24T03:34:56.728Z,79041.41
2023-02-24T03:37:29.699Z,79032.00
2023-02-24T03:40:15.740Z,79027.41
2023-02-24T03:42:49.783Z,79018.31
2023-02-24T03:45:19.539Z,79027.84
2023-02-24T03:47:50.160Z,79020.13
2023-02-24T03:50:22.969Z,79050.53
2023-02-24T03:53:31.855Z,79042.13
2023-02-24T03:56:16.982Z,79055.44
2023-02-24T03:59:05.886Z,79042.91
2023-02-24T04:02:07.779Z,79043.63
2023-02-24T04:04:56.063Z,79048.13
2023-02-24T04:08:11.239Z,79065.47
2023-02-24T04:10:53.386Z,79049.53
2023-02-24T04:13:53.418Z,79056.16
2023-02-24T04:16:37.755Z,79055.44
2023-02-24T04:19:19.432Z,79052.44
2023-02-24T04:21:52.117Z,79087.72
2023-02-24T04:24:32.477Z,79075.03
2023-02-24T04:27:07.858Z,79081.94
2023-02-24T04:29:49.963Z,79090.69
2023-02-24T04:32:23.964Z,79096.59
2023-02-24T04:34:54.038Z,79079.50
2023-02-24T04:37:23.968Z,79095.28
2023-02-24T04:39:53.236Z,79096.34
2023-02-24T04:42:29.293Z,79099.41
2023-02-24T04:44:59.610Z,79075.81
2023-02-24T04:47:29.957Z,79099.66
2023-02-24T04:50:00.378Z,79088.31
2023-02-24T04:52:30.182Z,79102.66
2023-02-24T04:54:59.825Z,79078.22
2023-02-24T04:57:28.728Z,79081.50
2023-02-24T05:00:00.347Z,79086.28
2023-02-24T05:02:31.868Z,79111.94
2023-02-24T05:05:00.905Z,79097.09
2023-02-24T05:07:30.053Z,79096.09
2023-02-24T05:09:59.501Z,79107.13
2023-02-24T05:12:30.505Z,79107.44
2023-02-24T05:15:02.227Z,79105.84
2023-02-24T05:17:32.638Z,79118.13
2023-02-24T05:20:19.901Z,79116.50
2023-02-24T05:22:53.457Z,79109.59
2023-02-24T05:25:22.982Z,79100.78
2023-02-24T05:27:52.181Z,79079.72
2023-02-24T05:30:21.471Z,79127.06
2023-02-24T05:32:50.356Z,79110.31
2023-02-24T05:35:20.492Z,79112.00
2023-02-24T05:37:50.421Z,79088.41
2023-02-24T05:40:24.253Z,79095.28
2023-02-24T05:42:53.425Z,79119.38
2023-02-24T05:45:22.322Z,79092.31
2023-02-24T05:47:51.447Z,79128.41
2023-02-24T05:50:22.712Z,79116.97
2023-02-24T05:52:52.001Z,79116.03
2023-02-24T05:55:21.499Z,79120.13
2023-02-24T05:57:51.886Z,79100.84
2023-02-24T06:00:21.355Z,79103.41
2023-02-24T06:02:51.386Z,79097.53
2023-02-24T06:05:27.086Z,79099.56
2023-02-24T06:08:07.594Z,79114.72
2023-02-24T06:10:37.200Z,79110.25
2023-02-24T06:13:08.352Z,79125.63
2023-02-24T06:15:38.513Z,79108.47
2023-02-24T06:18:08.619Z,79117.06
2023-02-24T06:20:38.085Z,79111.00
2023-02-24T06:23:07.226Z,79119.34
2023-02-24T06:25:36.496Z,79109.94
2023-02-24T06:28:05.762Z,79094.47
2023-02-24T06:30:35.012Z,79104.59
2023-02-24T06:33:03.933Z,79117.34
2023-02-24T06:35:35.786Z,79103.28
2023-02-24T06:38:05.404Z,79106.00
2023-02-24T06:40:34.550Z,79119.50
2023-02-24T06:43:03.904Z,79102.78
2023-02-24T06:45:33.165Z,79099.53
2023-02-24T06:48:04.437Z,79102.53
2023-02-24T06:50:33.807Z,79110.59
2023-02-24T06:53:03.707Z,79110.34
2023-02-24T06:55:36.583Z,79102.22
2023-02-24T06:58:06.180Z,79108.81
2023-02-24T07:00:39.858Z,79098.88
2023-02-24T07:03:17.817Z,79095.84
2023-02-24T07:05:55.113Z,79105.47
2023-02-24T07:08:28.226Z,79088.00
2023-02-24T07:11:00.869Z,79102.69
2023-02-24T07:13:32.813Z,79089.41
2023-02-24T07:16:08.361Z,79083.97
2023-02-24T07:18:42.582Z,79097.75
2023-02-24T07:21:13.109Z,79086.53
2023-02-24T07:23:44.624Z,79094.97
2023-02-24T07:26:20.175Z,79068.75
2023-02-24T07:28:49.281Z,79087.25
2023-02-24T07:31:22.082Z,79069.88
2023-02-24T07:33:57.790Z,79078.94
2023-02-24T07:36:31.047Z,79069.28
2023-02-24T07:39:00.593Z,79078.00
2023-02-24T07:41:31.304Z,79063.31
2023-02-24T07:44:04.191Z,79068.53
2023-02-24T07:46:33.434Z,79080.38
2023-02-24T07:49:03.966Z,79044.19
2023-02-24T07:51:33.798Z,79071.13
2023-02-24T07:54:04.346Z,79054.59
2023-02-24T07:56:34.220Z,79030.53
2023-02-24T07:59:09.140Z,79056.81
2023-02-24T08:01:50.580Z,79050.94
2023-02-24T08:04:24.290Z,79052.75
2023-02-24T08:06:57.385Z,79035.94
2023-02-24T08:09:47.252Z,79045.88
2023-02-24T08:12:24.974Z,79051.69
2023-02-24T08:14:54.944Z,79033.31
2023-02-24T08:17:27.898Z,79042.91
2023-02-24T08:20:16.036Z,79031.88
2023-02-24T08:22:53.016Z,79041.53
2023-02-24T08:25:26.228Z,79016.03
2023-02-24T08:28:08.041Z,79032.84
2023-02-24T08:30:41.045Z,79030.47
2023-02-24T08:33:12.179Z,79039.19
2023-02-24T08:35:45.716Z,79030.78
2023-02-24T08:38:19.092Z,79028.06
2023-02-24T08:40:55.790Z,79026.78
2023-02-24T08:43:34.044Z,79041.06
2023-02-24T08:46:22.448Z,79029.88
2023-02-24T08:48:57.604Z,79024.91
2023-02-24T08:51:36.432Z,79013.91
2023-02-24T08:54:16.388Z,79015.38
2023-02-24T08:56:50.056Z,79016.69
2023-02-24T08:59:39.210Z,79017.59
2023-02-24T09:02:24.962Z,79026.41
2023-02-24T09:05:00.329Z,79008.75
2023-02-24T09:07:43.171Z,79005.00
2023-02-24T09:10:19.512Z,79011.00
2023-02-24T09:12:50.117Z,79023.09
2023-02-24T09:15:19.422Z,79022.47
2023-02-24T09:17:48.307Z,79012.31
2023-02-24T09:20:43.198Z,79003.16
2023-02-24T09:23:20.926Z,79016.25
2023-02-24T09:25:56.504Z,79006.41
2023-02-24T09:28:30.118Z,79020.78
2023-02-24T09:31:05.729Z,79006.69
2023-02-24T09:33:43.423Z,79019.91
2023-02-24T09:36:21.596Z,79002.69
2023-02-24T09:39:02.480Z,79007.50
2023-02-24T09:42:03.505Z,78995.13
2023-02-24T09:44:45.575Z,79005.75
2023-02-24T09:47:58.389Z,79023.41
2023-02-24T09:51:02.699Z,79007.94
2023-02-24T09:53:50.465Z,79016.66
2023-02-24T09:56:25.052Z,79018.72
2023-02-24T09:59:35.756Z,79014.66
2023-02-24T10:02:32.115Z,79004.59
2023-02-24T10:05:39.874Z,79004.28
2023-02-24T10:08:26.321Z,79005.81
2023-02-24T10:11:08.457Z,79000.81
2023-02-24T10:14:03.485Z,79007.03
2023-02-24T10:16:43.704Z,78993.63
2023-02-24T10:19:24.543Z,79012.72
2023-02-24T10:22:31.846Z,78989.44
2023-02-24T10:25:37.043Z,79018.22
2023-02-24T10:28:37.126Z,79019.00
2023-02-24T10:31:27.353Z,79014.13
2023-02-24T10:34:07.508Z,79014.97
2023-02-24T10:36:37.835Z,79000.09
2023-02-24T10:39:28.091Z,78998.44
2023-02-24T10:42:16.426Z,79009.91
2023-02-24T10:45:02.197Z,78998.63
2023-02-24T10:47:32.750Z,79007.69
2023-02-24T10:50:04.468Z,78997.50
2023-02-24T10:52:59.459Z,79008.41
2023-02-24T10:55:45.382Z,79013.09
2023-02-24T10:58:57.507Z,79006.00
2023-02-24T11:01:53.004Z,79005.28
2023-02-24T11:04:33.915Z,79001.72
2023-02-24T11:07:11.353Z,79001.72
2023-02-24T11:09:54.545Z,79002.44
2023-02-24T11:12:45.365Z,78993.13
2023-02-24T11:15:46.422Z,78998.44
2023-02-24T11:18:28.870Z,78980.63
2023-02-24T11:21:19.549Z,79002.72
2023-02-24T11:23:57.695Z,79003.69
2023-02-24T11:26:35.698Z,78976.84
2023-02-24T11:29:46.394Z,79010.41
2023-02-24T11:32:44.734Z,79005.44
2023-02-24T11:35:45.945Z,79002.56
2023-02-24T11:38:30.554Z,79002.38
2023-02-24T11:41:33.055Z,79002.03
2023-02-24T11:44:36.190Z,79009.69
2023-02-24T11:47:14.308Z,78996.81
2023-02-24T11:49:55.699Z,79015.03
2023-02-24T11:52:32.924Z,78974.00
2023-02-24T11:55:06.489Z,78997.50
2023-02-24T11:57:47.263Z,79018.59
2023-02-24T12:00:21.487Z,79016.59
2023-02-24T12:02:56.740Z,79020.53
2023-02-24T12:05:38.588Z,79024.59
2023-02-24T12:08:15.355Z,78990.69
2023-02-24T12:10:51.727Z,79027.75
2023-02-24T12:13:40.889Z,79025.00
2023-02-24T12:16:42.681Z,79020.94
2023-02-24T12:20:07.307Z,79028.81
2023-02-24T12:22:52.854Z,79015.13
2023-02-24T12:25:28.844Z,79019.44
2023-02-24T12:28:19.390Z,79031.13
2023-02-24T12:31:14.568Z,79027.38
2023-02-24T12:34:04.832Z,79025.00
2023-02-24T12:37:10.984Z,79025.41
2023-02-24T12:40:02.733Z,79029.63
2023-02-24T12:42:43.735Z,79031.44
2023-02-24T12:45:23.762Z,79035.06
2023-02-24T12:48:20.479Z,79035.28
2023-02-24T12:50:53.878Z,79020.06
2023-02-24T12:54:00.876Z,79035.91
2023-02-24T12:56:43.665Z,79043.50
2023-02-24T12:59:19.017Z,79047.09
2023-02-24T13:02:01.801Z,79038.16
2023-02-24T13:04:39.723Z,79050.34
2023-02-24T13:07:29.992Z,79051.94
2023-02-24T13:10:13.293Z,79034.44
2023-02-24T13:13:12.093Z,79026.97
2023-02-24T13:15:55.202Z,79057.81
2023-02-24T13:18:42.623Z,79059.41
2023-02-24T13:21:25.756Z,79060.72
2023-02-24T13:24:00.652Z,79066.81
2023-02-24T13:26:32.960Z,79058.34
2023-02-24T13:29:15.545Z,79055.03
2023-02-24T13:31:53.750Z,79050.38
2023-02-24T13:34:33.783Z,79077.53
2023-02-24T13:37:03.290Z,79044.63
2023-02-24T13:39:38.093Z,79080.25
2023-02-24T13:42:29.361Z,79069.84
2023-02-24T13:45:19.587Z,79090.50
2023-02-24T13:48:10.070Z,79085.75
2023-02-24T13:50:59.757Z,79073.72
2023-02-24T13:53:59.826Z,79086.69
2023-02-24T13:56:42.065Z,79093.81
2023-02-24T13:59:40.265Z,79085.56
2023-02-24T14:02:12.346Z,79107.63
2023-02-24T14:04:54.654Z,79062.16
2023-02-24T14:07:31.216Z,79098.59
2023-02-24T14:10:31.269Z,79105.72
2023-02-24T14:13:30.705Z,79104.84
2023-02-24T14:16:01.238Z,79107.97
2023-02-24T14:18:31.832Z,79087.44
2023-02-24T14:21:01.194Z,79115.25
2023-02-24T14:23:32.602Z,79102.84
2023-02-24T14:26:19.890Z,79080.56
2023-02-24T14:28:58.588Z,79091.28
2023-02-24T14:31:29.362Z,79102.03
2023-02-24T14:34:04.610Z,79121.72
2023-02-24T14:36:40.531Z,79121.59
2023-02-24T14:39:23.816Z,79103.94
2023-02-24T14:42:05.369Z,79104.66
2023-02-24T14:44:42.888Z,79123.13
2023-02-24T14:47:15.442Z,79107.44
2023-02-24T14:49:56.810Z,79133.34
2023-02-24T14:52:36.851Z,79121.63
2023-02-24T14:55:27.254Z,79136.25
2023-02-24T14:58:15.327Z,79138.38
2023-02-24T15:01:25.546Z,79141.03
2023-02-24T15:04:00.818Z,79124.59
2023-02-24T15:06:41.635Z,79131.88
2023-02-24T15:09:44.022Z,79153.00
2023-02-24T15:12:18.699Z,79133.28
2023-02-24T15:14:56.283Z,79149.88
2023-02-24T15:17:26.075Z,79143.09
2023-02-24T15:19:57.810Z,79114.00
2023-02-24T15:22:34.174Z,79160.22
2023-02-24T15:25:33.771Z,79150.16
2023-02-24T15:28:35.948Z,79139.69
2023-02-24T15:31:09.785Z,79148.44
2023-02-24T15:33:46.627Z,79161.81
2023-02-24T15:36:30.392Z,79167.81
2023-02-24T15:39:11.228Z,79170.44
2023-02-24T15:41:42.586Z,79142.09
2023-02-24T15:44:32.804Z,79157.97
2023-02-24T15:47:14.636Z,79175.91
2023-02-24T15:49:44.347Z,79167.34
2023-02-24T15:52:13.300Z,79177.34
2023-02-24T15:54:45.247Z,79157.53
2023-02-24T15:57:17.862Z,79165.53
2023-02-24T15:59:50.219Z,79182.75
2023-02-24T16:02:21.810Z,79183.47
2023-02-24T16:04:53.217Z,79192.75
2023-02-24T16:07:30.545Z,79190.13
2023-02-24T16:10:02.336Z,79166.25
2023-02-24T16:12:35.208Z,79172.28
2023-02-24T16:15:08.311Z,79170.28
2023-02-24T16:17:43.226Z,79192.81
2023-02-24T16:20:17.502Z,79178.94
2023-02-24T16:22:47.741Z,79164.34
2023-02-24T16:25:18.417Z,79184.22
2023-02-24T16:27:47.427Z,79164.44
2023-02-24T16:30:22.633Z,79155.13
2023-02-24T16:32:53.240Z,79173.63
2023-02-24T16:35:23.337Z,79178.94
2023-02-24T16:37:52.532Z,79184.25
2023-02-24T16:40:32.504Z,79192.13
2023-02-24T16:43:02.071Z,79176.22
2023-02-24T16:45:32.237Z,79192.16
2023-02-24T16:48:04.018Z,79192.88
2023-02-24T16:50:37.150Z,79194.19
2023-02-24T16:53:06.681Z,79173.59
2023-02-24T16:55:36.176Z,79188.16
2023-02-24T16:58:04.937Z,79178.81
2023-02-24T17:00:34.525Z,79197.84
2023-02-24T17:03:08.200Z,79185.72
2023-02-24T17:05:37.946Z,79158.47
2023-02-24T17:08:07.020Z,79161.66
2023-02-24T17:10:40.170Z,79189.31
2023-02-24T17:13:09.168Z,79182.66
2023-02-24T17:15:37.837Z,79167.47
2023-02-24T17:18:08.353Z,79195.81
2023-02-24T17:20:39.952Z,79197.09
2023-02-24T17:23:09.556Z,79160.06
2023-02-24T17:25:38.809Z,79176.56
2023-02-24T17:28:09.202Z,79193.09
2023-02-24T17:30:40.572Z,79197.75
2023-02-24T17:33:09.412Z,79155.59
2023-02-24T17:35:38.207Z,79176.88
2023-02-24T17:38:15.139Z,79165.66
2023-02-24T17:40:45.929Z,79170.84
2023-02-24T17:43:15.032Z,79196.75
2023-02-24T17:45:47.610Z,79192.72
2023-02-24T17:48:17.630Z,79172.06
2023-02-24T17:50:47.877Z,79203.13
2023-02-24T17:53:17.543Z,79195.06
2023-02-24T17:56:01.488Z,79179.19
2023-02-24T17:58:31.597Z,79186.38
2023-02-24T18:01:03.199Z,79169.19
2023-02-24T18:03:37.446Z,79192.25
2023-02-24T18:06:12.365Z,79188.94
2023-02-24T18:08:42.503Z,79179.69
2023-02-24T18:11:17.869Z,79195.59
2023-02-24T18:13:49.085Z,79184.28
2023-02-24T18:16:18.467Z,79174.47
2023-02-24T18:18:47.566Z,79161.81
2023-02-24T18:21:16.852Z,79170.38
2023-02-24T18:23:46.290Z,79179.09
2023-02-24T18:26:16.695Z,79179.72
2023-02-24T18:28:46.230Z,79171.00
2023-02-24T18:31:20.266Z,79155.75
2023-02-24T18:33:49.826Z,79168.28
2023-02-24T18:36:19.559Z,79160.97
2023-02-24T18:38:49.311Z,79152.97
2023-02-24T18:41:22.713Z,79156.25
2023-02-24T18:43:57.714Z,79154.34
2023-02-24T18:46:28.257Z,79175.47
2023-02-24T18:48:58.398Z,79170.91
2023-02-24T18:51:28.097Z,79173.66
2023-02-24T18:54:04.131Z,79171.09
2023-02-24T18:56:36.089Z,79148.78
2023-02-24T18:59:05.645Z,79176.88
2023-02-24T19:01:40.364Z,79152.53
2023-02-24T19:04:10.799Z,79152.72
2023-02-24T19:06:42.713Z,79168.81
2023-02-24T19:09:13.128Z,79171.56
2023-02-24T19:11:43.990Z,79158.47
2023-02-24T19:14:14.918Z,79167.78
2023-02-24T19:16:43.990Z,79151.88
2023-02-24T19:19:17.739Z,79167.66
2023-02-24T19:21:47.730Z,79155.72
2023-02-24T19:24:18.192Z,79171.00
2023-02-24T19:26:48.691Z,79150.56
2023-02-24T19:29:18.295Z,79118.06
2023-02-24T19:31:47.584Z,79157.69
2023-02-24T19:34:16.817Z,79112.09
2023-02-24T19:36:45.604Z,79147.88
2023-02-24T19:39:17.422Z,79170.44
2023-02-24T19:41:49.539Z,79162.50
2023-02-24T19:44:19.214Z,79132.06
2023-02-24T19:46:48.067Z,79153.19
2023-02-24T19:49:17.112Z,79139.97
2023-02-24T19:51:48.149Z,79135.31
2023-02-24T19:54:17.937Z,79138.66
2023-02-24T19:56:46.700Z,79133.44
2023-02-24T19:59:16.197Z,79151.28
2023-02-24T20:01:45.000Z,79126.69
2023-02-24T20:04:14.326Z,79148.66
2023-02-24T20:06:44.628Z,79132.16
2023-02-24T20:09:17.081Z,79156.63
2023-02-24T20:11:47.210Z,79144.75
2023-02-24T20:14:18.027Z,79146.69
2023-02-24T20:16:47.768Z,79116.94
2023-02-24T20:19:20.198Z,79114.94
2023-02-24T20:21:49.221Z,79144.66
2023-02-24T20:24:19.561Z,79140.66
2023-02-24T20:26:50.639Z,79141.94
2023-02-24T20:29:21.932Z,79137.94
2023-02-24T20:31:52.094Z,79122.09
2023-02-24T20:34:21.918Z,79136.59
2023-02-24T20:36:51.060Z,79120.06
2023-02-24T20:39:20.503Z,79130.66
2023-02-24T20:41:51.822Z,79103.63
2023-02-24T20:44:21.372Z,79130.16
2023-02-24T20:46:50.275Z,79116.94
2023-02-24T20:49:19.171Z,79108.38
2023-02-24T20:51:48.154Z,79115.03
2023-02-24T20:54:17.882Z,79107.09
2023-02-24T20:56:47.690Z,79105.81
2023-02-24T20:59:23.414Z,79111.75
2023-02-24T21:01:53.257Z,79108.41
2023-02-24T21:04:22.979Z,79089.28
2023-02-24T21:06:53.188Z,79110.41
2023-02-24T21:09:22.309Z,79094.53
2023-02-24T21:11:51.080Z,79066.13
2023-02-24T21:14:20.285Z,79095.91
2023-02-24T21:16:50.649Z,79111.09
2023-02-24T21:19:21.443Z,79104.47
2023-02-24T21:21:50.560Z,79105.16
2023-02-24T21:24:19.301Z,79056.19
2023-02-24T21:26:48.606Z,79100.50
2023-02-24T21:29:17.607Z,79074.06
2023-02-24T21:31:46.819Z,79071.41
2023-02-24T21:34:18.148Z,79070.75
2023-02-24T21:36:47.659Z,79090.53
2023-02-24T21:39:16.720Z,79056.16
2023-02-24T21:41:46.325Z,79060.16
2023-02-24T21:44:16.304Z,79074.03
2023-02-24T21:46:46.547Z,79083.31
2023-02-24T21:49:16.467Z,79090.59
2023-02-24T21:51:49.855Z,79083.94
2023-02-24T21:54:19.407Z,79050.22
2023-02-24T21:56:48.628Z,79037.63
2023-02-24T21:59:17.567Z,79056.13
2023-02-24T22:01:48.025Z,79080.63
2023-02-24T22:04:20.071Z,79077.34
2023-02-24T22:06:49.714Z,79080.00
2023-02-24T22:09:21.390Z,79076.69
2023-02-24T22:11:51.475Z,79079.31
2023-02-24T22:14:20.646Z,79048.25
2023-02-24T22:16:50.142Z,79080.69
2023-02-24T22:19:20.686Z,79082.66
2023-02-24T22:21:49.714Z,79051.53
2023-02-24T22:24:20.402Z,79071.31
2023-02-24T22:26:49.492Z,79045.50
2023-02-24T22:29:18.379Z,79072.56
2023-02-24T22:31:50.019Z,79056.66
2023-02-24T22:34:19.157Z,79065.94
2023-02-24T22:36:48.019Z,79077.81
2023-02-24T22:39:18.431Z,79027.56
2023-02-24T22:41:48.405Z,79063.28
2023-02-24T22:44:20.327Z,79040.19
2023-02-24T22:46:50.455Z,79042.16
2023-02-24T22:49:19.616Z,79064.69
2023-02-24T22:51:48.644Z,79055.47
2023-02-24T22:54:17.908Z,79074.63
2023-02-24T22:56:48.329Z,79075.28
2023-02-24T22:59:18.162Z,79058.75
2023-02-24T23:01:47.381Z,79066.09
2023-02-24T23:04:25.479Z,79051.53
2023-02-24T23:06:56.080Z,79081.31
2023-02-24T23:09:25.085Z,79044.91
2023-02-24T23:11:54.906Z,79054.16
2023-02-24T23:14:24.122Z,79052.22
2023-02-24T23:16:56.534Z,79076.66
2023-02-24T23:19:26.011Z,79069.41
2023-02-24T23:21:57.311Z,79063.44
2023-02-24T23:24:26.678Z,79059.53
2023-02-24T23:26:58.544Z,79081.31
2023-02-24T23:29:28.644Z,79080.63
2023-02-24T23:31:58.531Z,79076.69
2023-02-24T23:34:27.795Z,79064.81
2023-02-24T23:36:56.573Z,79082.00
2023-02-24T23:39:26.212Z,79062.16
2023-02-24T23:41:57.765Z,79049.59
2023-02-24T23:44:27.236Z,79085.28
2023-02-24T23:46:59.072Z,79058.16
2023-02-24T23:49:39.093Z,79081.31
2023-02-24T23:52:15.316Z,79063.41
2023-02-24T23:54:44.650Z,79079.25
2023-02-24T23:57:13.827Z,79085.88
2023-02-24T23:59:43.306Z,79066.00
